createdAt,value
2022-10-17T00:00:34.340Z,86.57
2022-10-17T00:02:07.480Z,87.60
2022-10-17T00:03:39.948Z,86.32
2022-10-17T00:05:12.202Z,87.62
2022-10-17T00:06:44.065Z,86.26
2022-10-17T00:08:16.601Z,86.85
2022-10-17T00:09:48.372Z,85.22
2022-10-17T00:11:21.492Z,83.33
2022-10-17T00:12:53.264Z,84.08
2022-10-17T00:14:24.984Z,85.04
2022-10-17T00:15:56.720Z,83.90
2022-10-17T00:17:30.386Z,83.31
2022-10-17T00:19:02.767Z,86.13
2022-10-17T00:20:35.180Z,84.45
2022-10-17T00:22:09.002Z,86.00
2022-10-17T00:23:40.704Z,86.22
2022-10-17T00:25:12.505Z,85.72
2022-10-17T00:26:44.246Z,87.40
2022-10-17T00:28:16.158Z,87.19
2022-10-17T00:29:48.793Z,87.21
2022-10-17T00:31:20.913Z,86.21
2022-10-17T00:32:54.019Z,86.30
2022-10-17T00:34:25.751Z,86.79
2022-10-17T00:36:03.714Z,87.25
2022-10-17T00:37:35.524Z,85.78
2022-10-17T00:39:07.291Z,84.57
2022-10-17T00:40:39.033Z,84.84
2022-10-17T00:42:12.309Z,84.53
2022-10-17T00:43:54.519Z,85.86
2022-10-17T00:45:26.514Z,85.57
2022-10-17T00:46:58.422Z,84.39
2022-10-17T00:48:31.634Z,85.03
2022-10-17T00:50:03.776Z,85.98
2022-10-17T00:51:38.045Z,86.62
2022-10-17T00:53:09.896Z,88.61
2022-10-17T00:54:44.139Z,88.86
2022-10-17T00:56:15.867Z,85.29
2022-10-17T00:57:47.644Z,86.33
2022-10-17T00:59:20.208Z,85.99
2022-10-17T01:00:52.127Z,85.34
2022-10-17T01:02:23.918Z,83.97
2022-10-17T01:03:56.969Z,86.66
2022-10-17T01:05:28.831Z,86.52
2022-10-17T01:07:00.584Z,86.52
2022-10-17T01:08:32.537Z,86.21
2022-10-17T01:10:05.138Z,85.57
2022-10-17T01:11:39.523Z,84.49
2022-10-17T01:13:13.354Z,86.02
2022-10-17T01:14:48.890Z,84.84
2022-10-17T01:16:25.475Z,86.48
2022-10-17T01:18:04.732Z,86.67
2022-10-17T01:19:53.431Z,85.84
2022-10-17T01:21:30.249Z,84.89
2022-10-17T01:23:10.714Z,83.44
2022-10-17T01:24:48.949Z,85.24
2022-10-17T01:26:25.133Z,87.86
2022-10-17T01:28:01.313Z,89.19
2022-10-17T01:29:37.125Z,88.25
2022-10-17T01:31:12.184Z,84.92
2022-10-17T01:32:45.751Z,84.92
2022-10-17T01:34:19.863Z,84.36
2022-10-17T01:35:53.724Z,85.83
2022-10-17T01:37:28.169Z,86.67
2022-10-17T01:39:02.293Z,84.77
2022-10-17T01:40:35.987Z,85.38
2022-10-17T01:42:11.553Z,84.99
2022-10-17T01:43:45.324Z,85.98
2022-10-17T01:45:18.339Z,84.58
2022-10-17T01:46:51.824Z,85.29
2022-10-17T01:48:24.630Z,87.16
2022-10-17T01:49:58.430Z,85.69
2022-10-17T01:51:31.384Z,86.24
2022-10-17T01:53:05.020Z,86.35
2022-10-17T01:54:38.860Z,85.70
2022-10-17T01:56:10.588Z,85.16
2022-10-17T01:57:44.176Z,86.98
2022-10-17T01:59:17.533Z,86.43
2022-10-17T02:00:49.282Z,86.06
2022-10-17T02:02:22.405Z,85.56
2022-10-17T02:03:54.314Z,85.82
2022-10-17T02:05:28.808Z,84.19
2022-10-17T02:07:06.550Z,84.42
2022-10-17T02:08:43.082Z,85.29
2022-10-17T02:10:18.158Z,85.08
2022-10-17T02:11:59.751Z,84.54
2022-10-17T02:13:37.409Z,85.24
2022-10-17T02:15:31.049Z,85.22
2022-10-17T02:17:07.488Z,87.08
2022-10-17T02:18:47.687Z,85.76
2022-10-17T02:20:21.967Z,85.51
2022-10-17T02:21:56.885Z,85.11
2022-10-17T02:23:33.694Z,84.27
2022-10-17T02:25:09.669Z,85.90
2022-10-17T02:26:43.129Z,84.31
2022-10-17T02:28:19.162Z,86.46
2022-10-17T02:29:54.432Z,86.12
2022-10-17T02:31:27.067Z,87.03
2022-10-17T02:32:59.856Z,86.75
2022-10-17T02:34:34.973Z,88.57
2022-10-17T02:36:12.204Z,86.62
2022-10-17T02:37:44.047Z,88.55
2022-10-17T02:39:15.963Z,89.50
2022-10-17T02:40:47.757Z,87.40
2022-10-17T02:42:19.524Z,88.13
2022-10-17T02:43:51.325Z,87.81
2022-10-17T02:45:26.086Z,87.62
2022-10-17T02:47:01.682Z,87.48
2022-10-17T02:48:35.886Z,90.18
2022-10-17T02:50:09.370Z,89.05
2022-10-17T02:51:43.337Z,87.07
2022-10-17T02:53:15.868Z,89.06
2022-10-17T02:54:49.058Z,88.08
2022-10-17T02:56:21.419Z,88.23
2022-10-17T02:57:54.116Z,87.15
2022-10-17T02:59:25.953Z,85.08
2022-10-17T03:00:57.927Z,84.18
2022-10-17T03:02:30.150Z,85.71
2022-10-17T03:04:06.779Z,89.32
2022-10-17T03:05:43.041Z,90.33
2022-10-17T03:07:14.771Z,89.66
2022-10-17T03:08:46.477Z,90.66
2022-10-17T03:10:18.188Z,88.91
2022-10-17T03:11:49.913Z,89.24
2022-10-17T03:13:21.585Z,88.64
2022-10-17T03:14:53.301Z,88.76
2022-10-17T03:16:25.086Z,89.13
2022-10-17T03:17:57.023Z,87.00
2022-10-17T03:19:28.742Z,87.57
2022-10-17T03:21:01.950Z,86.64
2022-10-17T03:22:33.779Z,85.20
2022-10-17T03:24:05.955Z,88.34
2022-10-17T03:25:37.837Z,88.14
2022-10-17T03:27:09.659Z,88.56
2022-10-17T03:28:41.444Z,88.65
2022-10-17T03:30:13.245Z,87.37
2022-10-17T03:31:45.134Z,89.11
2022-10-17T03:33:17.061Z,86.89
2022-10-17T03:34:48.757Z,88.49
2022-10-17T03:36:21.882Z,87.05
2022-10-17T03:37:55.235Z,87.76
2022-10-17T03:39:26.969Z,86.51
2022-10-17T03:40:58.735Z,86.69
2022-10-17T03:42:31.710Z,85.34
2022-10-17T03:44:03.614Z,85.98
2022-10-17T03:45:35.323Z,86.09
2022-10-17T03:47:09.242Z,86.34
2022-10-17T03:48:43.634Z,86.80
2022-10-17T03:50:15.558Z,86.63
2022-10-17T03:51:48.778Z,85.69
2022-10-17T03:53:20.515Z,85.37
2022-10-17T03:54:52.352Z,86.88
2022-10-17T03:56:24.788Z,88.22
2022-10-17T03:57:56.645Z,88.83
2022-10-17T03:59:28.516Z,87.17
2022-10-17T04:01:04.233Z,85.43
2022-10-17T04:02:36.015Z,87.02
2022-10-17T04:04:07.796Z,86.88
2022-10-17T04:05:39.594Z,85.92
2022-10-17T04:07:13.302Z,85.71
2022-10-17T04:08:45.234Z,86.58
2022-10-17T04:10:18.969Z,85.54
2022-10-17T04:11:50.779Z,86.17
2022-10-17T04:13:22.558Z,89.13
2022-10-17T04:14:54.679Z,87.46
2022-10-17T04:16:26.648Z,87.88
2022-10-17T04:17:58.439Z,86.98
2022-10-17T04:19:30.221Z,89.90
2022-10-17T04:21:02.562Z,87.28
2022-10-17T04:22:35.715Z,85.59
2022-10-17T04:24:08.922Z,86.34
2022-10-17T04:25:40.694Z,87.76
2022-10-17T04:27:12.463Z,88.19
2022-10-17T04:28:44.201Z,89.01
2022-10-17T04:30:16.370Z,85.33
2022-10-17T04:31:48.235Z,85.79
2022-10-17T04:33:20.045Z,85.28
2022-10-17T04:34:51.786Z,85.77
2022-10-17T04:36:23.552Z,86.86
2022-10-17T04:37:56.887Z,88.13
2022-10-17T04:39:29.395Z,90.34
2022-10-17T04:41:06.786Z,87.67
2022-10-17T04:42:38.481Z,90.25
2022-10-17T04:44:10.376Z,91.69
2022-10-17T04:45:42.079Z,91.79
2022-10-17T04:47:13.859Z,92.33
2022-10-17T04:48:45.631Z,92.46
2022-10-17T04:50:17.920Z,90.86
2022-10-17T04:51:49.681Z,91.66
2022-10-17T04:53:22.849Z,90.71
2022-10-17T04:54:54.644Z,90.55
2022-10-17T04:56:26.462Z,91.53
2022-10-17T04:57:58.231Z,91.49
2022-10-17T04:59:30.100Z,93.64
2022-10-17T05:01:05.134Z,91.80
2022-10-17T05:02:38.352Z,92.48
2022-10-17T05:04:10.283Z,90.16
2022-10-17T05:05:42.125Z,89.14
2022-10-17T05:07:13.839Z,88.60
2022-10-17T05:08:47.534Z,89.29
2022-10-17T05:10:19.216Z,89.80
2022-10-17T05:11:50.861Z,91.45
2022-10-17T05:13:22.587Z,89.26
2022-10-17T05:14:54.382Z,88.40
2022-10-17T05:16:26.525Z,86.56
2022-10-17T05:17:58.334Z,86.09
2022-10-17T05:19:30.337Z,87.55
2022-10-17T05:21:03.277Z,91.26
2022-10-17T05:22:38.239Z,89.75
2022-10-17T05:24:15.238Z,89.76
2022-10-17T05:25:46.947Z,87.28
2022-10-17T05:27:19.007Z,88.96
2022-10-17T05:28:52.402Z,89.21
2022-10-17T05:30:24.291Z,88.65
2022-10-17T05:31:56.036Z,89.46
2022-10-17T05:33:27.731Z,87.98
2022-10-17T05:34:59.446Z,89.74
2022-10-17T05:36:31.212Z,90.08
2022-10-17T05:38:02.952Z,89.58
2022-10-17T05:39:36.063Z,90.34
2022-10-17T05:41:07.792Z,91.36
2022-10-17T05:44:11.262Z,90.38
2022-10-17T05:45:43.092Z,89.60
2022-10-17T05:47:14.903Z,89.65
2022-10-17T05:48:46.741Z,88.16
2022-10-17T05:50:21.558Z,91.42
2022-10-17T05:51:53.242Z,90.22
2022-10-17T05:53:24.973Z,88.61
2022-10-17T05:54:58.065Z,88.00
2022-10-17T05:56:29.725Z,89.26
2022-10-17T05:58:01.470Z,92.61
2022-10-17T05:59:33.210Z,89.89
2022-10-17T06:01:07.165Z,88.02
2022-10-17T06:02:41.339Z,87.12
2022-10-17T06:04:13.087Z,89.46
2022-10-17T06:05:44.830Z,87.40
2022-10-17T06:07:16.669Z,88.39
2022-10-17T06:08:48.397Z,90.63
2022-10-17T06:10:21.506Z,87.84
2022-10-17T06:11:53.273Z,88.54
2022-10-17T06:13:25.032Z,89.16
2022-10-17T06:14:56.760Z,88.70
2022-10-17T06:16:28.552Z,87.41
2022-10-17T06:18:00.259Z,87.98
2022-10-17T06:19:32.061Z,87.98
2022-10-17T06:21:04.023Z,88.10
2022-10-17T06:22:35.765Z,87.48
2022-10-17T06:24:07.524Z,88.12
2022-10-17T06:25:40.686Z,89.68
2022-10-17T06:27:12.604Z,88.73
2022-10-17T06:28:44.616Z,89.96
2022-10-17T06:30:17.619Z,88.35
2022-10-17T06:31:49.457Z,90.34
2022-10-17T06:33:21.586Z,92.50
2022-10-17T06:34:53.368Z,93.68
2022-10-17T06:36:25.078Z,93.41
2022-10-17T06:37:56.774Z,91.91
2022-10-17T06:39:33.906Z,94.09
2022-10-17T06:41:08.881Z,92.38
2022-10-17T06:42:41.529Z,93.98
2022-10-17T06:44:13.292Z,92.91
2022-10-17T06:45:45.977Z,95.10
2022-10-17T06:47:19.932Z,92.35
2022-10-17T06:48:51.994Z,92.34
2022-10-17T06:50:23.789Z,92.76
2022-10-17T06:51:55.544Z,93.67
2022-10-17T06:53:28.590Z,94.74
2022-10-17T06:55:00.471Z,95.40
2022-10-17T06:56:34.915Z,95.08
2022-10-17T06:58:06.647Z,91.73
2022-10-17T06:59:38.439Z,91.54
2022-10-17T07:01:11.158Z,94.01
2022-10-17T07:02:42.907Z,93.91
2022-10-17T07:04:14.669Z,93.76
2022-10-17T07:05:51.728Z,95.03
2022-10-17T07:07:23.530Z,95.78
2022-10-17T07:08:55.788Z,95.99
2022-10-17T07:10:27.553Z,96.45
2022-10-17T07:12:00.818Z,95.15
2022-10-17T07:13:36.766Z,95.95
2022-10-17T07:15:11.421Z,96.95
2022-10-17T07:16:43.142Z,96.77
2022-10-17T07:18:15.012Z,96.91
2022-10-17T07:19:46.942Z,96.27
2022-10-17T07:21:18.695Z,96.89
2022-10-17T07:22:50.504Z,95.59
2022-10-17T07:24:22.302Z,95.79
2022-10-17T07:25:58.898Z,97.03
2022-10-17T07:27:32.456Z,96.26
2022-10-17T07:29:06.484Z,96.90
2022-10-17T07:30:38.336Z,95.27
2022-10-17T07:32:10.205Z,96.29
2022-10-17T07:33:42.495Z,95.79
2022-10-17T07:35:14.424Z,95.66
2022-10-17T07:36:46.255Z,95.89
2022-10-17T07:38:18.105Z,95.94
2022-10-17T07:39:50.035Z,96.61
2022-10-17T07:41:21.928Z,97.58
2022-10-17T07:42:56.435Z,97.85
2022-10-17T07:44:28.190Z,97.46
2022-10-17T07:46:00.667Z,97.07
2022-10-17T07:47:35.626Z,97.07
2022-10-17T07:49:07.497Z,96.94
2022-10-17T07:50:39.626Z,96.22
2022-10-17T07:52:12.013Z,96.53
2022-10-17T07:53:46.546Z,96.35
2022-10-17T07:55:20.667Z,95.52
2022-10-17T07:56:58.083Z,95.88
2022-10-17T07:58:31.576Z,96.01
2022-10-17T08:00:03.600Z,96.23
2022-10-17T08:01:35.208Z,96.71
2022-10-17T08:03:06.971Z,95.67
2022-10-17T08:04:39.141Z,97.13
2022-10-17T08:06:10.794Z,95.80
2022-10-17T08:07:42.401Z,95.56
2022-10-17T08:09:14.002Z,95.86
2022-10-17T08:10:45.644Z,96.68
2022-10-17T08:12:17.274Z,96.60
2022-10-17T08:13:50.220Z,96.12
2022-10-17T08:15:21.862Z,96.55
2022-10-17T08:16:54.308Z,96.05
2022-10-17T08:18:25.864Z,96.53
2022-10-17T08:19:57.450Z,96.56
2022-10-17T08:21:29.032Z,96.84
2022-10-17T08:23:00.596Z,96.90
2022-10-17T08:24:32.297Z,96.56
2022-10-17T08:26:05.198Z,96.49
2022-10-17T08:27:36.835Z,95.26
2022-10-17T08:29:13.214Z,95.76
2022-10-17T08:30:44.887Z,95.05
2022-10-17T08:32:16.619Z,95.54
2022-10-17T08:33:48.985Z,95.48
2022-10-17T08:35:22.114Z,96.27
2022-10-17T08:36:53.763Z,95.91
2022-10-17T08:38:27.766Z,96.78
2022-10-17T08:39:59.530Z,96.05
2022-10-17T08:41:39.502Z,95.11
2022-10-17T08:43:18.724Z,95.18
2022-10-17T08:44:54.750Z,95.28
2022-10-17T08:46:29.681Z,94.68
2022-10-17T08:48:02.036Z,95.38
2022-10-17T08:49:37.760Z,94.43
2022-10-17T08:51:12.573Z,94.81
2022-10-17T08:52:46.597Z,95.25
2022-10-17T08:54:20.029Z,95.79
2022-10-17T08:55:52.589Z,93.97
2022-10-17T08:57:24.147Z,94.83
2022-10-17T08:58:55.698Z,95.31
2022-10-17T09:00:29.659Z,95.29
2022-10-17T09:02:03.669Z,94.05
2022-10-17T09:03:42.464Z,94.75
2022-10-17T09:05:32.021Z,94.88
2022-10-17T09:07:05.525Z,94.47
2022-10-17T09:08:40.150Z,95.19
2022-10-17T09:10:15.846Z,95.06
2022-10-17T09:11:55.417Z,95.65
2022-10-17T09:13:40.690Z,94.88
2022-10-17T09:15:34.349Z,95.35
2022-10-17T09:17:15.600Z,95.92
2022-10-17T09:18:50.459Z,95.96
2022-10-17T09:20:23.793Z,94.52
2022-10-17T09:21:57.233Z,95.05
2022-10-17T09:23:31.463Z,95.54
2022-10-17T09:25:05.257Z,95.60
2022-10-17T09:26:37.255Z,94.62
2022-10-17T09:28:13.906Z,94.74
2022-10-17T09:29:46.178Z,95.30
2022-10-17T09:31:24.247Z,95.78
2022-10-17T09:32:55.927Z,95.81
2022-10-17T09:34:28.441Z,95.28
2022-10-17T09:36:00.117Z,95.06
2022-10-17T09:37:31.815Z,94.89
2022-10-17T09:39:04.913Z,94.83
2022-10-17T09:40:36.998Z,94.81
2022-10-17T09:42:10.205Z,94.70
2022-10-17T09:43:41.796Z,94.75
2022-10-17T09:45:16.589Z,94.18
2022-10-17T09:46:59.636Z,93.94
2022-10-17T09:48:33.191Z,94.83
2022-10-17T09:50:08.195Z,94.40
2022-10-17T09:51:40.411Z,94.22
2022-10-17T09:53:13.871Z,94.50
2022-10-17T09:54:46.783Z,94.60
2022-10-17T09:56:19.101Z,94.28
2022-10-17T09:57:55.336Z,93.17
2022-10-17T09:59:35.351Z,92.93
2022-10-17T10:01:20.974Z,93.14
2022-10-17T10:03:10.543Z,93.35
2022-10-17T10:05:03.745Z,92.63
2022-10-17T10:06:36.495Z,92.42
2022-10-17T10:08:15.353Z,91.81
2022-10-17T10:09:47.180Z,91.96
2022-10-17T10:11:47.053Z,91.72
2022-10-17T10:13:20.444Z,91.50
2022-10-17T10:18:34.374Z,90.47
2022-10-17T10:20:28.645Z,89.89
2022-10-17T10:22:01.168Z,89.96
2022-10-17T10:23:32.970Z,89.83
2022-10-17T10:25:08.434Z,89.83
2022-10-17T10:26:41.011Z,89.76
2022-10-17T10:28:12.592Z,88.73
2022-10-17T10:29:49.718Z,89.94
2022-10-17T10:31:26.330Z,88.61
2022-10-17T10:32:58.493Z,88.32
2022-10-17T10:34:32.663Z,88.30
2022-10-17T10:36:06.345Z,88.56
2022-10-17T10:37:39.539Z,89.25
2022-10-17T10:39:22.922Z,88.04
2022-10-17T10:40:55.279Z,89.00
2022-10-17T10:42:29.062Z,88.97
2022-10-17T10:44:01.776Z,87.82
2022-10-17T10:45:49.112Z,88.84
2022-10-17T10:47:23.291Z,87.31
2022-10-17T10:48:58.562Z,87.82
2022-10-17T10:50:33.250Z,88.08
2022-10-17T10:52:04.831Z,86.49
2022-10-17T10:53:41.912Z,87.38
2022-10-17T10:55:21.320Z,85.91
2022-10-17T10:56:53.716Z,85.61
2022-10-17T10:58:42.119Z,85.39
2022-10-17T11:00:16.469Z,84.96
2022-10-17T11:01:50.732Z,84.47
2022-10-17T11:03:26.314Z,84.29
2022-10-17T11:04:59.504Z,83.47
2022-10-17T11:06:34.503Z,82.98
2022-10-17T11:08:10.807Z,84.01
2022-10-17T11:09:51.145Z,80.82
2022-10-17T11:11:26.177Z,80.35
2022-10-17T11:13:01.498Z,78.21
2022-10-17T11:14:41.679Z,78.54
2022-10-17T11:16:18.872Z,73.77
2022-10-17T11:17:56.873Z,76.18
2022-10-17T11:19:31.616Z,75.92
2022-10-17T11:21:06.032Z,75.36
2022-10-17T11:22:43.932Z,74.32
2022-10-17T11:24:19.291Z,76.41
2022-10-17T11:25:51.820Z,75.03
2022-10-17T11:27:24.015Z,76.32
2022-10-17T11:28:57.515Z,75.05
2022-10-17T11:30:42.280Z,72.14
2022-10-17T11:32:17.928Z,72.89
2022-10-17T11:33:50.738Z,72.53
2022-10-17T11:35:24.651Z,72.80
2022-10-17T11:36:57.980Z,71.79
2022-10-17T11:38:38.396Z,70.88
2022-10-17T11:40:20.422Z,70.89
2022-10-17T11:41:57.546Z,70.54
2022-10-17T11:43:33.036Z,71.76
2022-10-17T11:45:06.633Z,67.89
2022-10-17T11:46:38.418Z,69.39
2022-10-17T11:48:12.788Z,70.10
2022-10-17T11:49:47.251Z,69.79
2022-10-17T11:53:14.884Z,69.99
2022-10-17T11:54:50.568Z,68.49
2022-10-17T11:56:25.659Z,69.54
2022-10-17T11:58:09.971Z,69.74
2022-10-17T11:59:58.340Z,69.19
2022-10-17T12:01:33.879Z,70.92
2022-10-17T12:03:13.402Z,71.28
2022-10-17T12:04:49.600Z,71.39
2022-10-17T12:06:29.602Z,70.74
2022-10-17T12:08:05.733Z,70.26
2022-10-17T12:09:41.161Z,71.43
2022-10-17T12:11:30.773Z,69.99
2022-10-17T12:13:40.494Z,69.66
2022-10-17T12:15:28.604Z,69.50
2022-10-17T12:17:00.406Z,69.76
2022-10-17T12:18:32.283Z,69.00
2022-10-17T12:20:27.740Z,69.81
2022-10-17T12:22:20.983Z,71.13
2022-10-17T12:23:52.732Z,67.27
2022-10-17T12:25:26.375Z,66.92
2022-10-17T12:27:11.807Z,66.53
2022-10-17T12:28:43.912Z,66.61
2022-10-17T12:30:22.601Z,67.69
2022-10-17T12:31:54.201Z,65.76
2022-10-17T12:33:32.076Z,69.70
2022-10-17T12:35:03.945Z,72.49
2022-10-17T12:36:44.334Z,70.85
2022-10-17T12:38:27.919Z,70.64
2022-10-17T12:40:01.514Z,71.17
2022-10-17T12:41:52.781Z,69.76
2022-10-17T12:43:57.440Z,68.66
2022-10-17T12:45:48.911Z,69.06
2022-10-17T12:47:37.961Z,71.74
2022-10-17T12:49:39.957Z,70.30
2022-10-17T12:53:04.877Z,69.22
2022-10-17T12:54:47.669Z,66.69
2022-10-17T12:56:34.355Z,67.68
2022-10-17T12:58:08.316Z,67.27
2022-10-17T12:59:43.578Z,69.23
2022-10-17T13:01:24.108Z,69.73
2022-10-17T13:02:57.382Z,67.06
2022-10-17T13:04:29.005Z,68.13
2022-10-17T13:06:02.401Z,68.57
2022-10-17T13:07:34.661Z,66.69
2022-10-17T13:09:08.757Z,69.15
2022-10-17T13:10:43.059Z,69.49
2022-10-17T13:12:17.976Z,66.63
2022-10-17T13:13:51.976Z,65.87
2022-10-17T13:15:24.937Z,67.24
2022-10-17T13:16:57.660Z,67.17
2022-10-17T13:18:29.448Z,68.08
2022-10-17T13:20:01.456Z,66.29
2022-10-17T13:21:33.267Z,66.73
2022-10-17T13:23:04.967Z,69.65
2022-10-17T13:24:37.784Z,68.07
2022-10-17T13:26:15.418Z,66.49
2022-10-17T13:27:47.134Z,65.39
2022-10-17T13:29:20.328Z,65.92
2022-10-17T13:30:54.722Z,64.48
2022-10-17T13:32:35.661Z,66.16
2022-10-17T13:34:16.023Z,66.47
2022-10-17T13:36:00.100Z,65.16
2022-10-17T13:37:32.585Z,62.27
2022-10-17T13:39:09.394Z,66.98
2022-10-17T13:40:49.915Z,64.66
2022-10-17T13:42:24.224Z,65.71
2022-10-17T13:43:58.030Z,66.62
2022-10-17T13:45:30.913Z,65.42
2022-10-17T13:47:03.976Z,65.05
2022-10-17T13:48:36.954Z,66.65
2022-10-17T13:50:39.536Z,66.08
2022-10-17T13:52:05.725Z,64.69
2022-10-17T13:53:39.865Z,66.68
2022-10-17T13:55:17.541Z,66.51
2022-10-17T13:58:29.894Z,67.96
2022-10-17T14:00:09.877Z,67.41
2022-10-17T14:01:43.269Z,66.40
2022-10-17T14:03:16.254Z,66.39
2022-10-17T14:05:15.565Z,67.02
2022-10-17T14:06:41.222Z,66.72
2022-10-17T14:08:21.692Z,67.33
2022-10-17T14:09:54.950Z,67.50
2022-10-17T14:11:30.539Z,66.45
2022-10-17T14:13:02.229Z,65.07
2022-10-17T14:14:51.733Z,65.75
2022-10-17T14:16:26.820Z,65.57
2022-10-17T14:18:02.313Z,64.86
2022-10-17T14:19:37.259Z,67.84
2022-10-17T14:24:53.338Z,65.80
2022-10-17T14:26:25.283Z,67.39
2022-10-17T14:28:03.467Z,68.12
2022-10-17T14:29:50.499Z,68.91
2022-10-17T14:31:29.860Z,68.04
2022-10-17T14:33:03.427Z,67.33
2022-10-17T14:34:37.456Z,68.45
2022-10-17T14:36:09.027Z,67.38
2022-10-17T14:37:43.891Z,68.08
2022-10-17T14:39:19.420Z,69.09
2022-10-17T14:40:51.650Z,66.81
2022-10-17T14:42:23.221Z,68.64
2022-10-17T14:43:56.271Z,67.49
2022-10-17T14:45:30.498Z,69.87
2022-10-17T14:47:30.329Z,68.64
2022-10-17T14:48:58.848Z,69.33
2022-10-17T14:50:32.170Z,70.28
2022-10-17T14:52:25.360Z,70.45
2022-10-17T14:54:16.147Z,71.67
2022-10-17T14:55:55.570Z,69.37
2022-10-17T14:57:39.548Z,69.62
2022-10-17T14:59:15.647Z,69.61
2022-10-17T15:00:53.070Z,69.39
2022-10-17T15:02:24.907Z,70.29
2022-10-17T15:03:56.486Z,70.16
2022-10-17T15:05:28.133Z,69.30
2022-10-17T15:07:01.073Z,70.46
2022-10-17T15:08:32.662Z,70.81
2022-10-17T15:10:05.075Z,68.93
2022-10-17T15:11:36.723Z,70.63
2022-10-17T15:15:00.356Z,70.12
2022-10-17T15:16:32.707Z,70.26
2022-10-17T15:18:04.437Z,72.92
2022-10-17T15:19:36.006Z,71.27
2022-10-17T15:21:19.703Z,72.02
2022-10-17T15:23:00.797Z,70.82
2022-10-17T15:24:32.381Z,71.23
2022-10-17T15:26:08.418Z,69.95
2022-10-17T15:27:40.014Z,69.56
2022-10-17T15:29:13.117Z,71.47
2022-10-17T15:30:44.895Z,71.17
2022-10-17T15:32:16.531Z,68.86
2022-10-17T15:33:48.238Z,69.56
2022-10-17T15:35:20.258Z,70.89
2022-10-17T15:36:51.977Z,71.98
2022-10-17T15:38:24.903Z,70.95
2022-10-17T15:39:56.618Z,70.83
2022-10-17T15:41:29.230Z,72.23
2022-10-17T15:43:00.920Z,70.70
2022-10-17T15:44:32.525Z,70.05
2022-10-17T15:46:05.000Z,69.84
2022-10-17T15:47:37.519Z,69.22
2022-10-17T15:49:11.316Z,70.05
2022-10-17T15:50:42.932Z,69.36
2022-10-17T15:52:14.515Z,70.66
2022-10-17T15:53:47.494Z,71.72
2022-10-17T15:55:19.183Z,73.63
2022-10-17T15:56:53.912Z,72.85
2022-10-17T15:58:28.326Z,70.31
2022-10-17T16:00:00.276Z,72.74
2022-10-17T16:01:32.108Z,71.98
2022-10-17T16:03:03.920Z,73.06
2022-10-17T16:04:35.490Z,72.77
2022-10-17T16:06:10.724Z,72.53
2022-10-17T16:07:46.546Z,73.21
2022-10-17T16:09:19.488Z,73.13
2022-10-17T16:10:51.332Z,73.57
2022-10-17T16:12:26.389Z,73.22
2022-10-17T16:13:58.966Z,74.97
2022-10-17T16:15:30.608Z,75.80
2022-10-17T16:17:02.175Z,75.87
2022-10-17T16:18:33.780Z,75.50
2022-10-17T16:20:06.141Z,75.16
2022-10-17T16:21:39.001Z,74.90
2022-10-17T16:23:11.732Z,76.22
2022-10-17T16:24:45.039Z,75.33
2022-10-17T16:26:16.706Z,74.97
2022-10-17T16:27:49.114Z,77.10
2022-10-17T16:29:20.745Z,77.90
2022-10-17T16:30:52.300Z,77.28
2022-10-17T16:32:23.930Z,76.15
2022-10-17T16:33:56.081Z,75.87
2022-10-17T16:35:31.933Z,77.96
2022-10-17T16:37:06.647Z,77.92
2022-10-17T16:38:38.278Z,78.59
2022-10-17T16:40:11.808Z,78.22
2022-10-17T16:41:43.475Z,80.14
2022-10-17T16:43:17.450Z,80.27
2022-10-17T16:44:49.136Z,79.67
2022-10-17T16:46:21.193Z,80.29
2022-10-17T16:47:53.525Z,79.35
2022-10-17T16:49:25.108Z,78.52
2022-10-17T16:50:56.702Z,78.16
2022-10-17T16:52:28.660Z,78.27
2022-10-17T16:54:00.685Z,77.59
2022-10-17T16:55:33.628Z,77.71
2022-10-17T16:57:05.357Z,78.52
2022-10-17T16:58:37.078Z,79.21
2022-10-17T17:00:11.939Z,79.94
2022-10-17T17:01:43.787Z,80.30
2022-10-17T17:03:15.507Z,79.93
2022-10-17T17:04:47.230Z,79.48
2022-10-17T17:06:23.109Z,79.55
2022-10-17T17:07:55.977Z,80.29
2022-10-17T17:09:27.856Z,81.41
2022-10-17T17:11:01.011Z,83.64
2022-10-17T17:12:33.310Z,84.02
2022-10-17T17:14:05.335Z,81.65
2022-10-17T17:15:38.411Z,81.58
2022-10-17T17:17:19.373Z,82.90
2022-10-17T17:19:02.962Z,82.76
2022-10-17T17:20:34.956Z,81.48
2022-10-17T17:22:06.691Z,79.38
2022-10-17T17:23:39.469Z,78.48
2022-10-17T17:25:11.363Z,81.08
2022-10-17T17:26:45.014Z,80.27
2022-10-17T17:28:16.754Z,80.83
2022-10-17T17:29:48.522Z,79.29
2022-10-17T17:31:22.148Z,79.17
2022-10-17T17:32:53.885Z,77.92
2022-10-17T17:34:25.628Z,77.49
2022-10-17T17:35:58.116Z,79.10
2022-10-17T17:37:30.091Z,80.26
2022-10-17T17:39:04.998Z,78.52
2022-10-17T17:40:36.777Z,77.48
2022-10-17T17:42:09.870Z,80.70
2022-10-17T17:43:42.149Z,79.72
2022-10-17T17:45:13.850Z,80.12
2022-10-17T17:46:45.793Z,79.13
2022-10-17T17:48:17.540Z,78.77
2022-10-17T17:49:49.231Z,78.68
2022-10-17T17:51:26.897Z,80.23
2022-10-17T17:53:00.984Z,80.58
2022-10-17T17:54:35.049Z,80.88
2022-10-17T17:56:08.883Z,82.89
2022-10-17T17:57:42.004Z,83.16
2022-10-17T17:59:13.822Z,83.57
2022-10-17T18:00:45.511Z,81.81
2022-10-17T18:02:17.239Z,80.62
2022-10-17T18:03:49.723Z,83.16
2022-10-17T18:05:21.544Z,84.53
2022-10-17T18:06:53.446Z,83.12
2022-10-17T18:08:25.328Z,81.55
2022-10-17T18:09:57.140Z,82.34
2022-10-17T18:11:28.958Z,82.02
2022-10-17T18:13:02.077Z,80.94
2022-10-17T18:14:34.130Z,80.08
2022-10-17T18:16:13.218Z,80.31
2022-10-17T18:17:44.916Z,80.76
2022-10-17T18:19:16.783Z,82.70
2022-10-17T18:20:48.530Z,82.96
2022-10-17T18:22:23.211Z,83.94
2022-10-17T18:23:54.981Z,82.92
2022-10-17T18:25:26.728Z,83.10
2022-10-17T18:26:59.924Z,83.23
2022-10-17T18:28:35.334Z,81.37
2022-10-17T18:30:08.551Z,80.41
2022-10-17T18:31:40.532Z,80.30
2022-10-17T18:33:12.207Z,79.98
2022-10-17T18:34:44.215Z,80.62
2022-10-17T18:36:15.912Z,81.55
2022-10-17T18:37:48.655Z,81.34
2022-10-17T18:39:20.345Z,80.90
2022-10-17T18:41:01.574Z,80.84
2022-10-17T18:42:33.427Z,82.91
2022-10-17T18:44:06.648Z,84.56
2022-10-17T18:45:41.398Z,82.93
2022-10-17T18:47:17.101Z,81.75
2022-10-17T18:48:49.239Z,81.68
2022-10-17T18:50:21.108Z,81.90
2022-10-17T18:51:55.978Z,80.77
2022-10-17T18:53:27.705Z,80.60
2022-10-17T18:54:59.486Z,81.34
2022-10-17T18:56:33.827Z,83.51
2022-10-17T18:58:05.759Z,82.27
2022-10-17T18:59:38.921Z,81.88
2022-10-17T19:01:11.653Z,80.79
2022-10-17T19:02:43.393Z,81.12
2022-10-17T19:04:15.212Z,80.59
2022-10-17T19:05:47.573Z,81.25
2022-10-17T19:07:22.420Z,81.61
2022-10-17T19:08:57.293Z,83.43
2022-10-17T19:10:31.094Z,83.26
2022-10-17T19:12:02.867Z,82.55
2022-10-17T19:13:34.870Z,81.73
2022-10-17T19:15:08.643Z,83.73
2022-10-17T19:16:41.401Z,82.53
2022-10-17T19:18:14.207Z,81.49
2022-10-17T19:19:50.467Z,81.12
2022-10-17T19:21:23.586Z,81.37
2022-10-17T19:22:55.720Z,81.32
2022-10-17T19:24:29.024Z,80.92
2022-10-17T19:26:06.092Z,81.34
2022-10-17T19:27:37.796Z,82.59
2022-10-17T19:29:09.777Z,82.91
2022-10-17T19:30:43.358Z,82.33
2022-10-17T19:32:17.927Z,82.76
2022-10-17T19:33:53.264Z,82.02
2022-10-17T19:35:24.981Z,81.96
2022-10-17T19:36:56.826Z,82.16
2022-10-17T19:38:28.641Z,81.28
2022-10-17T19:40:00.467Z,81.28
2022-10-17T19:41:32.194Z,81.72
2022-10-17T19:43:03.933Z,83.11
2022-10-17T19:44:38.452Z,83.05
2022-10-17T19:46:14.723Z,82.31
2022-10-17T19:47:46.447Z,82.84
2022-10-17T19:49:18.264Z,84.86
2022-10-17T19:50:50.236Z,85.64
2022-10-17T19:52:22.021Z,85.08
2022-10-17T19:53:54.642Z,84.89
2022-10-17T19:55:28.946Z,86.45
2022-10-17T19:57:00.644Z,87.77
2022-10-17T19:58:43.727Z,84.57
2022-10-17T20:00:15.536Z,85.02
2022-10-17T20:01:48.711Z,84.69
2022-10-17T20:03:20.678Z,83.54
2022-10-17T20:04:54.755Z,83.52
2022-10-17T20:06:44.122Z,83.06
2022-10-17T20:08:15.849Z,82.69
2022-10-17T20:09:50.041Z,83.41
2022-10-17T20:11:28.441Z,83.07
2022-10-17T20:13:05.978Z,86.31
2022-10-17T20:14:41.014Z,83.64
2022-10-17T20:16:14.038Z,82.89
2022-10-17T20:17:49.394Z,86.33
2022-10-17T20:19:21.113Z,86.74
2022-10-17T20:20:52.993Z,86.88
2022-10-17T20:22:24.825Z,84.28
2022-10-17T20:23:56.562Z,85.83
2022-10-17T20:25:28.232Z,84.68
2022-10-17T20:26:59.914Z,85.19
2022-10-17T20:28:31.753Z,87.73
2022-10-17T20:30:07.827Z,85.62